Coeymans Hollow, New York
Current Conditions -  °F | °C
As of 4:51 AM on Sunday 26 Oct 2014 (Local Time) from KALB Reporting Station
Overcast Overcast  
Wind Chill: 46°   Ceiling: 6500
Heat Index: 49°   Visibility: 10mi
Dew Point: 43°   Wind: 7mph
Humidity: 80%   Direction: 250°WSW
Pressure: 29.53"   Gusts: NA
Location:  42.47°N, 73.89°W
Report Text: KALB 260851Z 25006KT 10SM SCT043 BKN065 BKN120 OVC200 09/06 A2953 RMK AO2 SLP001 OCNL BINOVC 60012 T00940061 53003 $
Loading
Personal Weather Stations






























Interactive Weather Map
Tropical Storm Tracking
New forecast layout! Learn more

10-Day Weather Forecast

Advertisements
Track Severe Weather on mobile